Kezdőlap
METAR-TAF:

METAR-TAF

Repülőterek :

Adelaide, Ausztrália

földrajzi szélesség: 34-56S, földrajzi hosszúság: 138-31E, magasság: 6 m

Jelenlegi meteorológiai megfigyelések

A jelentés 37 perccel ezelõtt készült, 07:30 UTC
Dél-délkeleti szél 14 kt
Hőmérséklet 27°C
Páratartalom 32%
Légköri nyomás 1008 hPa
Látótávolság 10 km, vagy több
felhőtlen 1500 m magasságban, és nincs gomolyfelhõ

METAR: YPAD 230730Z 16014KT CAVOK 27/09 Q1008 NOSIG

Idő: 18:37 (08:07 UTC)

Előrejelzés

A jelentés 3 órával és 3 perccel ezelõtt készült, 05:04 UTC
Az előrejelzés 23-én 06 óra UTC és 24-én 12 óra UTC között érvényes
Dél-délkeleti szél 12 kt
Látótávolság 10 km, vagy több
felhőtlen 1500 m magasságban, és nincs gomolyfelhõ

TAF: YPAD 230504Z 2306/2412 15012KT CAVOK

Meteorológiai megfigyelések és előrejelzések több, mint 4000 repülőtéren (METAR és TAF jelentéseket).

A térképen piros és sárga pontok jelzik az elérhető meteorológiai állomásokat.

Mozgassa az egeret a pont fölött, hogy megjelenjen az állomás neve.

Azután kattintson az időjárási megfigyelések és előrejelzések megtekintéséhez.

A térkép megváltoztatása: kattintson a fekete keresztel jelölt zöld gombra ráközelítéshez, a vonallal jelölt zöld gombra távolításhoz, vagy a zöld nyilakra a szomszédos térképek eléréséhez.


METAR-TAF: